sensor_id;sensor_type;location;lat;lon;timestamp;pressure;altitude;pressure_sealevel;temperature;humidity
34124;BME280;13153;52.316;21.166;2023-12-07T00:01:50;100795.25;;;2.40;66.23
34124;BME280;13153;52.316;21.166;2023-12-07T00:04:16;100797.75;;;2.38;66.78
34124;BME280;13153;52.316;21.166;2023-12-07T00:06:41;100796.66;;;2.35;66.76
34124;BME280;13153;52.316;21.166;2023-12-07T00:09:07;100789.19;;;2.26;67.66
34124;BME280;13153;52.316;21.166;2023-12-07T00:11:33;100795.19;;;2.25;67.67
34124;BME280;13153;52.316;21.166;2023-12-07T00:13:59;100791.56;;;2.36;67.75
34124;BME280;13153;52.316;21.166;2023-12-07T00:16:24;100794.50;;;2.27;67.87
34124;BME280;13153;52.316;21.166;2023-12-07T00:18:50;100794.75;;;2.32;67.54
34124;BME280;13153;52.316;21.166;2023-12-07T00:21:16;100787.59;;;2.28;67.54
34124;BME280;13153;52.316;21.166;2023-12-07T00:23:41;100785.56;;;2.37;68.15
34124;BME280;13153;52.316;21.166;2023-12-07T00:26:07;100789.38;;;2.55;67.67
34124;BME280;13153;52.316;21.166;2023-12-07T00:28:33;100791.19;;;2.43;67.25
34124;BME280;13153;52.316;21.166;2023-12-07T00:30:59;100792.28;;;2.47;67.58
34124;BME280;13153;52.316;21.166;2023-12-07T00:33:24;100796.06;;;2.39;68.51
34124;BME280;13153;52.316;21.166;2023-12-07T00:35:50;100793.66;;;2.42;68.63
34124;BME280;13153;52.316;21.166;2023-12-07T00:38:16;100795.97;;;2.37;68.82
34124;BME280;13153;52.316;21.166;2023-12-07T00:40:41;100794.28;;;2.51;68.50
34124;BME280;13153;52.316;21.166;2023-12-07T00:43:07;100791.09;;;2.28;68.35
34124;BME280;13153;52.316;21.166;2023-12-07T00:45:33;100797.47;;;2.33;69.54
34124;BME280;13153;52.316;21.166;2023-12-07T00:47:59;100800.16;;;2.48;68.38
34124;BME280;13153;52.316;21.166;2023-12-07T00:50:25;100793.78;;;2.56;68.41
34124;BME280;13153;52.316;21.166;2023-12-07T00:52:51;100788.06;;;2.49;68.62
34124;BME280;13153;52.316;21.166;2023-12-07T00:55:17;100798.56;;;2.63;68.59
34124;BME280;13153;52.316;21.166;2023-12-07T00:57:43;100797.97;;;2.68;68.79
34124;BME280;13153;52.316;21.166;2023-12-07T01:00:09;100788.47;;;2.55;68.20
34124;BME280;13153;52.316;21.166;2023-12-07T01:02:36;100796.75;;;2.49;68.47
34124;BME280;13153;52.316;21.166;2023-12-07T01:05:02;100797.56;;;2.61;69.09
34124;BME280;13153;52.316;21.166;2023-12-07T01:07:28;100795.38;;;2.41;69.04
34124;BME280;13153;52.316;21.166;2023-12-07T01:09:53;100794.47;;;2.54;68.91
34124;BME280;13153;52.316;21.166;2023-12-07T01:12:19;100796.25;;;2.55;69.18
34124;BME280;13153;52.316;21.166;2023-12-07T01:14:45;100806.56;;;2.67;68.77
34124;BME280;13153;52.316;21.166;2023-12-07T01:17:11;100797.47;;;2.60;69.19
34124;BME280;13153;52.316;21.166;2023-12-07T01:19:37;100799.84;;;2.70;68.75
34124;BME280;13153;52.316;21.166;2023-12-07T01:22:03;100800.34;;;2.64;68.43
34124;BME280;13153;52.316;21.166;2023-12-07T01:24:28;100801.16;;;2.63;68.50
34124;BME280;13153;52.316;21.166;2023-12-07T01:26:55;100801.16;;;2.50;69.66
34124;BME280;13153;52.316;21.166;2023-12-07T01:29:21;100799.47;;;2.64;69.37
34124;BME280;13153;52.316;21.166;2023-12-07T01:31:46;100799.75;;;2.69;69.47
34124;BME280;13153;52.316;21.166;2023-12-07T01:34:12;100797.66;;;2.63;68.71
34124;BME280;13153;52.316;21.166;2023-12-07T01:36:38;100801.47;;;2.55;69.22
34124;BME280;13153;52.316;21.166;2023-12-07T01:39:04;100798.47;;;2.62;69.05
34124;BME280;13153;52.316;21.166;2023-12-07T01:41:30;100804.97;;;2.55;69.32
34124;BME280;13153;52.316;21.166;2023-12-07T01:43:56;100800.75;;;2.57;68.86
34124;BME280;13153;52.316;21.166;2023-12-07T01:46:23;100798.66;;;2.65;68.76
34124;BME280;13153;52.316;21.166;2023-12-07T01:48:49;100796.88;;;2.64;68.74
34124;BME280;13153;52.316;21.166;2023-12-07T01:51:17;100792.16;;;2.58;68.71
34124;BME280;13153;52.316;21.166;2023-12-07T01:53:43;100791.56;;;2.49;68.87
34124;BME280;13153;52.316;21.166;2023-12-07T01:56:10;100782.59;;;2.44;69.12
34124;BME280;13153;52.316;21.166;2023-12-07T01:58:37;100790.88;;;2.52;69.56
34124;BME280;13153;52.316;21.166;2023-12-07T02:01:03;100774.09;;;2.60;68.97
34124;BME280;13153;52.316;21.166;2023-12-07T02:03:31;100788.19;;;2.50;68.52
34124;BME280;13153;52.316;21.166;2023-12-07T02:05:58;100786.56;;;2.52;69.36
34124;BME280;13153;52.316;21.166;2023-12-07T02:08:24;100791.28;;;2.58;69.59
34124;BME280;13153;52.316;21.166;2023-12-07T02:10:50;100787.88;;;2.59;68.89
34124;BME280;13153;52.316;21.166;2023-12-07T02:13:20;100790.78;;;2.50;69.11
34124;BME280;13153;52.316;21.166;2023-12-07T02:15:46;100790.88;;;2.52;69.79
34124;BME280;13153;52.316;21.166;2023-12-07T02:18:25;100786.47;;;2.51;69.60
34124;BME280;13153;52.316;21.166;2023-12-07T02:23:39;100789.06;;;2.51;69.35
34124;BME280;13153;52.316;21.166;2023-12-07T02:26:08;100781.88;;;2.60;69.67
34124;BME280;13153;52.316;21.166;2023-12-07T02:28:36;100784.56;;;2.61;69.90
34124;BME280;13153;52.316;21.166;2023-12-07T02:31:01;100789.66;;;2.60;68.86
34124;BME280;13153;52.316;21.166;2023-12-07T02:33:27;100788.56;;;2.56;69.45
34124;BME280;13153;52.316;21.166;2023-12-07T02:35:53;100783.59;;;2.59;69.67
34124;BME280;13153;52.316;21.166;2023-12-07T02:38:22;100791.97;;;2.55;69.79
34124;BME280;13153;52.316;21.166;2023-12-07T02:40:54;100795.38;;;2.54;69.90
34124;BME280;13153;52.316;21.166;2023-12-07T02:43:21;100795.06;;;2.63;70.06
34124;BME280;13153;52.316;21.166;2023-12-07T02:45:48;100793.97;;;2.46;70.04
34124;BME280;13153;52.316;21.166;2023-12-07T02:48:14;100792.56;;;2.51;69.82
34124;BME280;13153;52.316;21.166;2023-12-07T02:50:43;100794.16;;;2.62;69.60
34124;BME280;13153;52.316;21.166;2023-12-07T02:53:08;100795.16;;;2.64;69.45
34124;BME280;13153;52.316;21.166;2023-12-07T02:55:34;100790.97;;;2.67;69.43
34124;BME280;13153;52.316;21.166;2023-12-07T02:58:00;100797.47;;;2.60;69.25
34124;BME280;13153;52.316;21.166;2023-12-07T03:00:26;100800.47;;;2.66;69.87
34124;BME280;13153;52.316;21.166;2023-12-07T03:02:51;100807.16;;;2.62;69.82
34124;BME280;13153;52.316;21.166;2023-12-07T03:05:17;100793.66;;;2.55;70.11
34124;BME280;13153;52.316;21.166;2023-12-07T03:07:45;100804.66;;;2.51;70.30
34124;BME280;13153;52.316;21.166;2023-12-07T03:10:11;100798.56;;;2.50;70.31
34124;BME280;13153;52.316;21.166;2023-12-07T03:12:37;100802.16;;;2.52;70.40
34124;BME280;13153;52.316;21.166;2023-12-07T03:15:03;100793.38;;;2.50;70.41
34124;BME280;13153;52.316;21.166;2023-12-07T03:17:29;100794.75;;;2.58;70.40
34124;BME280;13153;52.316;21.166;2023-12-07T03:19:55;100800.84;;;2.72;69.79
34124;BME280;13153;52.316;21.166;2023-12-07T03:22:21;100797.25;;;2.57;70.14
34124;BME280;13153;52.316;21.166;2023-12-07T03:24:52;100786.56;;;2.52;69.88
34124;BME280;13153;52.316;21.166;2023-12-07T03:27:18;100795.38;;;2.68;69.94
34124;BME280;13153;52.316;21.166;2023-12-07T03:29:44;100797.38;;;2.58;70.05
34124;BME280;13153;52.316;21.166;2023-12-07T03:32:09;100797.25;;;2.70;69.41
34124;BME280;13153;52.316;21.166;2023-12-07T03:34:35;100797.25;;;2.57;70.31
34124;BME280;13153;52.316;21.166;2023-12-07T03:37:01;100792.47;;;2.63;70.60
34124;BME280;13153;52.316;21.166;2023-12-07T03:39:29;100797.16;;;2.55;70.11
34124;BME280;13153;52.316;21.166;2023-12-07T03:41:57;100799.56;;;2.65;70.39
34124;BME280;13153;52.316;21.166;2023-12-07T03:44:23;100797.66;;;2.63;69.74
34124;BME280;13153;52.316;21.166;2023-12-07T03:46:49;100799.06;;;2.71;70.02
34124;BME280;13153;52.316;21.166;2023-12-07T03:49:15;100803.25;;;2.69;69.83
34124;BME280;13153;52.316;21.166;2023-12-07T03:51:40;100803.03;;;2.79;70.34
34124;BME280;13153;52.316;21.166;2023-12-07T03:54:06;100803.66;;;2.75;69.43
34124;BME280;13153;52.316;21.166;2023-12-07T03:56:33;100802.66;;;2.73;70.05
34124;BME280;13153;52.316;21.166;2023-12-07T03:58:59;100807.28;;;2.92;69.45
34124;BME280;13153;52.316;21.166;2023-12-07T04:01:27;100806.28;;;2.90;69.32
34124;BME280;13153;52.316;21.166;2023-12-07T04:03:54;100807.84;;;2.73;70.09
34124;BME280;13153;52.316;21.166;2023-12-07T04:06:22;100802.56;;;2.72;70.19
34124;BME280;13153;52.316;21.166;2023-12-07T04:08:48;100808.16;;;2.64;70.30
34124;BME280;13153;52.316;21.166;2023-12-07T04:11:14;100800.34;;;2.78;70.29
34124;BME280;13153;52.316;21.166;2023-12-07T04:13:41;100802.34;;;2.69;70.49
34124;BME280;13153;52.316;21.166;2023-12-07T04:16:08;100799.25;;;2.74;69.84
34124;BME280;13153;52.316;21.166;2023-12-07T04:18:34;100803.94;;;2.80;69.47
34124;BME280;13153;52.316;21.166;2023-12-07T04:21:00;100804.59;;;2.90;70.44
34124;BME280;13153;52.316;21.166;2023-12-07T04:23:26;100805.59;;;2.92;69.74
34124;BME280;13153;52.316;21.166;2023-12-07T04:25:52;100803.44;;;2.85;69.98
34124;BME280;13153;52.316;21.166;2023-12-07T04:28:17;100803.44;;;2.85;70.49
34124;BME280;13153;52.316;21.166;2023-12-07T04:30:43;100803.25;;;2.69;70.32
34124;BME280;13153;52.316;21.166;2023-12-07T04:33:09;100802.56;;;2.72;70.11
34124;BME280;13153;52.316;21.166;2023-12-07T04:35:35;100801.75;;;2.73;70.54
34124;BME280;13153;52.316;21.166;2023-12-07T04:38:01;100811.66;;;2.78;70.78
34124;BME280;13153;52.316;21.166;2023-12-07T04:40:27;100811.34;;;2.87;70.31
34124;BME280;13153;52.316;21.166;2023-12-07T04:42:53;100808.34;;;2.81;70.35
34124;BME280;13153;52.316;21.166;2023-12-07T04:45:19;100805.75;;;2.81;70.51
34124;BME280;13153;52.316;21.166;2023-12-07T04:47:45;100800.03;;;2.86;69.61
34124;BME280;13153;52.316;21.166;2023-12-07T04:50:12;100811.44;;;2.88;69.49
34124;BME280;13153;52.316;21.166;2023-12-07T04:52:38;100804.69;;;2.92;70.23
34124;BME280;13153;52.316;21.166;2023-12-07T04:55:05;100803.63;;;2.88;69.38
34124;BME280;13153;52.316;21.166;2023-12-07T04:57:35;100804.34;;;2.73;70.07
34124;BME280;13153;52.316;21.166;2023-12-07T05:00:03;100809.00;;;2.91;70.45
34124;BME280;13153;52.316;21.166;2023-12-07T05:02:32;100817.94;;;2.82;70.30
34124;BME280;13153;52.316;21.166;2023-12-07T05:04:58;100808.84;;;2.88;70.26
34124;BME280;13153;52.316;21.166;2023-12-07T05:07:24;100809.00;;;2.91;69.43
34124;BME280;13153;52.316;21.166;2023-12-07T05:09:50;100809.53;;;2.86;70.04
34124;BME280;13153;52.316;21.166;2023-12-07T05:12:19;100809.78;;;2.90;70.22
34124;BME280;13153;52.316;21.166;2023-12-07T05:14:44;100812.06;;;2.99;69.84
34124;BME280;13153;52.316;21.166;2023-12-07T05:17:10;100820.94;;;2.75;70.53
34124;BME280;13153;52.316;21.166;2023-12-07T05:19:36;100819.84;;;2.84;70.01
34124;BME280;13153;52.316;21.166;2023-12-07T05:22:02;100818.50;;;2.91;70.01
34124;BME280;13153;52.316;21.166;2023-12-07T05:24:28;100818.78;;;2.95;70.02
34124;BME280;13153;52.316;21.166;2023-12-07T05:26:54;100820.69;;;2.98;69.74
34124;BME280;13153;52.316;21.166;2023-12-07T05:29:19;100816.09;;;2.94;69.88
34124;BME280;13153;52.316;21.166;2023-12-07T05:31:49;100816.28;;;2.97;69.67
34124;BME280;13153;52.316;21.166;2023-12-07T05:34:17;100823.53;;;2.88;69.58
34124;BME280;13153;52.316;21.166;2023-12-07T05:36:44;100825.94;;;2.85;70.81
34124;BME280;13153;52.316;21.166;2023-12-07T05:39:12;100833.91;;;2.88;70.03
34124;BME280;13153;52.316;21.166;2023-12-07T05:41:38;100825.50;;;2.92;70.14
34124;BME280;13153;52.316;21.166;2023-12-07T05:44:04;100827.28;;;2.93;69.43
34124;BME280;13153;52.316;21.166;2023-12-07T05:46:30;100830.22;;;2.84;69.69
34124;BME280;13153;52.316;21.166;2023-12-07T05:48:56;100831.97;;;2.98;70.15
34124;BME280;13153;52.316;21.166;2023-12-07T05:51:23;100831.66;;;3.07;69.67
34124;BME280;13153;52.316;21.166;2023-12-07T05:53:49;100835.47;;;2.99;70.18
34124;BME280;13153;52.316;21.166;2023-12-07T05:56:19;100830.47;;;3.02;69.28
34124;BME280;13153;52.316;21.166;2023-12-07T05:58:48;100836.66;;;3.04;70.08
34124;BME280;13153;52.316;21.166;2023-12-07T06:01:17;100839.28;;;2.91;70.37
34124;BME280;13153;52.316;21.166;2023-12-07T06:03:44;100838.38;;;3.04;70.10
34124;BME280;13153;52.316;21.166;2023-12-07T06:06:11;100842.06;;;3.07;69.46
34124;BME280;13153;52.316;21.166;2023-12-07T06:08:40;100842.66;;;3.03;69.42
34124;BME280;13153;52.316;21.166;2023-12-07T06:11:07;100843.88;;;2.95;70.06
34124;BME280;13153;52.316;21.166;2023-12-07T06:13:33;100847.06;;;3.04;69.91
34124;BME280;13153;52.316;21.166;2023-12-07T06:15:59;100844.56;;;3.06;69.68
34124;BME280;13153;52.316;21.166;2023-12-07T06:18:26;100851.47;;;3.05;69.70
34124;BME280;13153;52.316;21.166;2023-12-07T06:20:53;100858.66;;;3.09;69.90
34124;BME280;13153;52.316;21.166;2023-12-07T06:23:18;100865.56;;;3.09;69.92
34124;BME280;13153;52.316;21.166;2023-12-07T06:25:44;100858.34;;;3.18;69.86
34124;BME280;13153;52.316;21.166;2023-12-07T06:28:10;100873.97;;;3.05;69.49
34124;BME280;13153;52.316;21.166;2023-12-07T06:30:38;100862.06;;;2.95;70.21
34124;BME280;13153;52.316;21.166;2023-12-07T06:33:04;100862.25;;;2.98;70.21
34124;BME280;13153;52.316;21.166;2023-12-07T06:35:29;100864.25;;;3.02;69.98
34124;BME280;13153;52.316;21.166;2023-12-07T06:37:56;100864.34;;;3.17;69.72
34124;BME280;13153;52.316;21.166;2023-12-07T06:40:22;100873.06;;;3.04;70.14
34124;BME280;13153;52.316;21.166;2023-12-07T06:42:47;100875.66;;;3.04;69.59
34124;BME280;13153;52.316;21.166;2023-12-07T06:45:16;100869.06;;;2.96;70.36
34124;BME280;13153;52.316;21.166;2023-12-07T06:47:42;100874.66;;;3.02;69.80
34124;BME280;13153;52.316;21.166;2023-12-07T06:50:10;100872.44;;;3.08;69.73
34124;BME280;13153;52.316;21.166;2023-12-07T06:52:37;100875.53;;;3.16;69.13
34124;BME280;13153;52.316;21.166;2023-12-07T06:55:03;100884.72;;;3.24;68.88
34124;BME280;13153;52.316;21.166;2023-12-07T06:57:29;100882.94;;;3.10;69.46
34124;BME280;13153;52.316;21.166;2023-12-07T06:59:55;100886.84;;;3.16;69.00
34124;BME280;13153;52.316;21.166;2023-12-07T07:02:21;100884.34;;;3.18;69.71
34124;BME280;13153;52.316;21.166;2023-12-07T07:04:46;100891.84;;;3.13;69.83
34124;BME280;13153;52.316;21.166;2023-12-07T07:07:17;100889.25;;;3.13;69.48
34124;BME280;13153;52.316;21.166;2023-12-07T07:09:43;100888.03;;;3.21;69.24
34124;BME280;13153;52.316;21.166;2023-12-07T07:12:09;100888.81;;;3.34;68.82
34124;BME280;13153;52.316;21.166;2023-12-07T07:14:35;100897.31;;;3.31;68.62
34124;BME280;13153;52.316;21.166;2023-12-07T07:17:01;100893.13;;;3.20;69.45
34124;BME280;13153;52.316;21.166;2023-12-07T07:19:26;100894.34;;;3.12;69.74
34124;BME280;13153;52.316;21.166;2023-12-07T07:21:52;100890.44;;;3.18;69.86
34124;BME280;13153;52.316;21.166;2023-12-07T07:24:18;100891.75;;;3.12;69.72
34124;BME280;13153;52.316;21.166;2023-12-07T07:26:43;100899.31;;;3.35;69.47
34124;BME280;13153;52.316;21.166;2023-12-07T07:29:09;100895.91;;;3.36;69.32
34124;BME280;13153;52.316;21.166;2023-12-07T07:31:35;100896.13;;;3.26;69.88
34124;BME280;13153;52.316;21.166;2023-12-07T07:34:02;100893.22;;;3.21;69.59
34124;BME280;13153;52.316;21.166;2023-12-07T07:36:28;100895.03;;;3.22;69.90
34124;BME280;13153;52.316;21.166;2023-12-07T07:38:54;100892.03;;;3.29;69.57
34124;BME280;13153;52.316;21.166;2023-12-07T07:41:21;100902.72;;;3.34;69.32
34124;BME280;13153;52.316;21.166;2023-12-07T07:43:47;100898.72;;;3.39;69.31
34124;BME280;13153;52.316;21.166;2023-12-07T07:46:12;100892.59;;;3.39;69.63
34124;BME280;13153;52.316;21.166;2023-12-07T07:48:38;100900.31;;;3.37;69.56
34124;BME280;13153;52.316;21.166;2023-12-07T07:51:05;100896.13;;;3.26;69.45
34124;BME280;13153;52.316;21.166;2023-12-07T07:53:30;100895.44;;;3.28;69.12
34124;BME280;13153;52.316;21.166;2023-12-07T07:55:56;100900.31;;;3.37;69.37
34124;BME280;13153;52.316;21.166;2023-12-07T07:58:22;100902.66;;;3.47;68.80
34124;BME280;13153;52.316;21.166;2023-12-07T08:00:47;100900.41;;;3.39;69.01
34124;BME280;13153;52.316;21.166;2023-12-07T08:03:13;100905.44;;;3.50;68.74
34124;BME280;13153;52.316;21.166;2023-12-07T08:05:39;100897.75;;;3.52;68.71
34124;BME280;13153;52.316;21.166;2023-12-07T08:08:05;100906.59;;;3.41;69.27
34124;BME280;13153;52.316;21.166;2023-12-07T08:10:30;100907.34;;;3.53;69.42
34124;BME280;13153;52.316;21.166;2023-12-07T08:12:56;100904.56;;;3.50;69.04
34124;BME280;13153;52.316;21.166;2023-12-07T08:15:22;100901.00;;;3.35;69.48
34124;BME280;13153;52.316;21.166;2023-12-07T08:17:48;100902.41;;;3.43;69.71
34124;BME280;13153;52.316;21.166;2023-12-07T08:20:13;100900.00;;;3.46;68.86
34124;BME280;13153;52.316;21.166;2023-12-07T08:22:40;100910.34;;;3.59;69.16
34124;BME280;13153;52.316;21.166;2023-12-07T08:25:07;100907.72;;;3.59;68.38
34124;BME280;13153;52.316;21.166;2023-12-07T08:27:34;100911.41;;;3.35;69.08
34124;BME280;13153;52.316;21.166;2023-12-07T08:30:00;100910.19;;;3.43;69.48
34124;BME280;13153;52.316;21.166;2023-12-07T08:32:26;100911.91;;;3.42;69.18
34124;BME280;13153;52.316;21.166;2023-12-07T08:34:53;100908.59;;;3.45;70.08
34124;BME280;13153;52.316;21.166;2023-12-07T08:37:18;100917.81;;;3.40;69.39
34124;BME280;13153;52.316;21.166;2023-12-07T08:39:45;100920.44;;;3.54;69.10
34124;BME280;13153;52.316;21.166;2023-12-07T08:42:11;100910.41;;;3.46;69.10
34124;BME280;13153;52.316;21.166;2023-12-07T08:44:38;100918.94;;;3.58;69.13
34124;BME280;13153;52.316;21.166;2023-12-07T08:47:04;100926.56;;;3.55;68.85
34124;BME280;13153;52.316;21.166;2023-12-07T08:49:30;100920.13;;;3.63;68.74
34124;BME280;13153;52.316;21.166;2023-12-07T08:51:57;100927.22;;;3.65;68.66
34124;BME280;13153;52.316;21.166;2023-12-07T08:54:23;100926.91;;;3.74;68.69
34124;BME280;13153;52.316;21.166;2023-12-07T08:56:49;100919.09;;;3.74;68.32
34124;BME280;13153;52.316;21.166;2023-12-07T08:59:15;100928.84;;;3.63;68.57
34124;BME280;13153;52.316;21.166;2023-12-07T09:01:40;100923.31;;;3.72;68.06
34124;BME280;13153;52.316;21.166;2023-12-07T09:04:06;100920.94;;;3.62;68.86
34124;BME280;13153;52.316;21.166;2023-12-07T09:06:32;100930.94;;;3.69;69.09
34124;BME280;13153;52.316;21.166;2023-12-07T09:08:58;100928.09;;;3.79;68.28
34124;BME280;13153;52.316;21.166;2023-12-07T09:11:24;100918.13;;;3.59;68.36
34124;BME280;13153;52.316;21.166;2023-12-07T09:13:50;100922.34;;;3.57;68.70
34124;BME280;13153;52.316;21.166;2023-12-07T09:16:16;100920.13;;;3.63;68.67
34124;BME280;13153;52.316;21.166;2023-12-07T09:18:42;100916.75;;;3.51;68.68
34124;BME280;13153;52.316;21.166;2023-12-07T09:21:08;100917.94;;;3.56;69.28
34124;BME280;13153;52.316;21.166;2023-12-07T09:23:34;100919.22;;;3.62;68.71
34124;BME280;13153;52.316;21.166;2023-12-07T09:26:01;100918.34;;;3.62;69.35
34124;BME280;13153;52.316;21.166;2023-12-07T09:28:26;100918.84;;;3.56;69.03
34124;BME280;13153;52.316;21.166;2023-12-07T09:30:52;100927.13;;;3.64;68.48
34124;BME280;13153;52.316;21.166;2023-12-07T09:33:18;100923.59;;;3.77;68.31
34124;BME280;13153;52.316;21.166;2023-12-07T09:35:44;100922.19;;;3.82;68.61
34124;BME280;13153;52.316;21.166;2023-12-07T09:38:10;100925.00;;;4.00;68.08
34124;BME280;13153;52.316;21.166;2023-12-07T09:40:36;100926.16;;;3.90;67.73
34124;BME280;13153;52.316;21.166;2023-12-07T09:43:02;100929.63;;;3.62;68.67
34124;BME280;13153;52.316;21.166;2023-12-07T09:45:28;100923.59;;;3.77;68.27
34124;BME280;13153;52.316;21.166;2023-12-07T09:47:54;100921.28;;;3.81;68.13
34124;BME280;13153;52.316;21.166;2023-12-07T09:50:23;100920.38;;;3.81;68.66
34124;BME280;13153;52.316;21.166;2023-12-07T09:52:56;100917.50;;;3.76;68.61
34124;BME280;13153;52.316;21.166;2023-12-07T09:55:23;100915.47;;;3.85;68.59
34124;BME280;13153;52.316;21.166;2023-12-07T09:57:50;100912.66;;;3.82;67.91
34124;BME280;13153;52.316;21.166;2023-12-07T10:00:17;100919.91;;;3.73;68.43
34124;BME280;13153;52.316;21.166;2023-12-07T10:02:46;100919.41;;;3.65;67.98
34124;BME280;13153;52.316;21.166;2023-12-07T10:05:15;100924.91;;;3.70;68.03
34124;BME280;13153;52.316;21.166;2023-12-07T10:07:45;100914.47;;;3.83;67.75
34124;BME280;13153;52.316;21.166;2023-12-07T10:10:17;100914.03;;;3.90;67.44
34124;BME280;13153;52.316;21.166;2023-12-07T10:12:54;100921.66;;;3.87;67.63
34124;BME280;13153;52.316;21.166;2023-12-07T10:15:22;100919.16;;;3.89;67.13
34124;BME280;13153;52.316;21.166;2023-12-07T10:20:19;100922.03;;;4.08;67.33
34124;BME280;13153;52.316;21.166;2023-12-07T10:23:09;100918.66;;;4.24;66.77
34124;BME280;13153;52.316;21.166;2023-12-07T10:25:41;100925.28;;;4.19;66.55
34124;BME280;13153;52.316;21.166;2023-12-07T10:28:08;100917.25;;;3.86;66.93
34124;BME280;13153;52.316;21.166;2023-12-07T10:30:39;100922.03;;;4.08;66.65
34124;BME280;13153;52.316;21.166;2023-12-07T10:33:06;100923.31;;;4.15;66.73
34124;BME280;13153;52.316;21.166;2023-12-07T10:35:42;100922.41;;;4.00;65.92
34124;BME280;13153;52.316;21.166;2023-12-07T10:38:09;100921.97;;;4.21;66.12
34124;BME280;13153;52.316;21.166;2023-12-07T10:40:35;100923.97;;;4.25;65.88
34124;BME280;13153;52.316;21.166;2023-12-07T10:43:05;100920.09;;;4.19;66.23
34124;BME280;13153;52.316;21.166;2023-12-07T10:45:32;100921.97;;;4.21;66.19
34124;BME280;13153;52.316;21.166;2023-12-07T10:48:07;100932.75;;;4.13;66.02
34124;BME280;13153;52.316;21.166;2023-12-07T10:50:47;100929.03;;;3.94;66.57
34124;BME280;13153;52.316;21.166;2023-12-07T10:53:27;100918.06;;;3.85;67.02
34124;BME280;13153;52.316;21.166;2023-12-07T10:56:00;100923.84;;;3.94;67.15
34124;BME280;13153;52.316;21.166;2023-12-07T10:58:26;100926.09;;;4.03;66.49
34124;BME280;13153;52.316;21.166;2023-12-07T11:00:56;100929.22;;;3.97;67.36
34124;BME280;13153;52.316;21.166;2023-12-07T11:03:23;100923.50;;;4.03;66.52
34124;BME280;13153;52.316;21.166;2023-12-07T11:05:50;100923.03;;;3.95;67.31
34124;BME280;13153;52.316;21.166;2023-12-07T11:08:37;100922.59;;;4.03;67.13
34124;BME280;13153;52.316;21.166;2023-12-07T11:11:20;100924.22;;;4.01;67.32
34124;BME280;13153;52.316;21.166;2023-12-07T11:14:13;100926.88;;;3.87;67.79
34124;BME280;13153;52.316;21.166;2023-12-07T11:16:46;100922.47;;;3.86;67.19
34124;BME280;13153;52.316;21.166;2023-12-07T11:19:44;100913.31;;;3.93;67.70
34124;BME280;13153;52.316;21.166;2023-12-07T11:22:12;100919.06;;;3.87;67.51
34124;BME280;13153;52.316;21.166;2023-12-07T11:25:00;100914.16;;;4.21;67.58
34124;BME280;13153;52.316;21.166;2023-12-07T11:27:32;100910.72;;;4.08;67.39
34124;BME280;13153;52.316;21.166;2023-12-07T11:30:02;100909.81;;;4.07;67.27
34124;BME280;13153;52.316;21.166;2023-12-07T11:32:47;100913.59;;;4.12;66.80
34124;BME280;13153;52.316;21.166;2023-12-07T11:35:14;100913.09;;;4.03;67.47
34124;BME280;13153;52.316;21.166;2023-12-07T11:38:06;100915.25;;;3.82;68.20
34124;BME280;13153;52.316;21.166;2023-12-07T11:40:40;100903.63;;;3.90;67.49
34124;BME280;13153;52.316;21.166;2023-12-07T11:43:08;100905.63;;;4.09;67.55
34124;BME280;13153;52.316;21.166;2023-12-07T11:45:49;100913.03;;;3.88;67.42
34124;BME280;13153;52.316;21.166;2023-12-07T11:48:16;100906.78;;;4.00;67.15
34124;BME280;13153;52.316;21.166;2023-12-07T11:51:05;100906.50;;;3.95;67.55
34124;BME280;13153;52.316;21.166;2023-12-07T11:53:34;100919.19;;;4.04;66.79
34124;BME280;13153;52.316;21.166;2023-12-07T11:56:08;100913.69;;;3.99;66.91
34124;BME280;13153;52.316;21.166;2023-12-07T11:58:37;100912.44;;;3.92;67.16
34124;BME280;13153;52.316;21.166;2023-12-07T12:01:03;100918.06;;;3.85;67.70
34124;BME280;13153;52.316;21.166;2023-12-07T12:03:31;100918.09;;;3.72;67.82
34124;BME280;13153;52.316;21.166;2023-12-07T12:06:01;100914.97;;;3.78;67.35
34124;BME280;13153;52.316;21.166;2023-12-07T12:08:27;100914.31;;;3.67;67.71
34124;BME280;13153;52.316;21.166;2023-12-07T12:10:54;100916.91;;;3.67;67.26
34124;BME280;13153;52.316;21.166;2023-12-07T12:13:35;100915.03;;;3.64;67.86
34124;BME280;13153;52.316;21.166;2023-12-07T12:16:02;100919.25;;;3.90;67.63
34124;BME280;13153;52.316;21.166;2023-12-07T12:18:28;100916.34;;;3.58;67.88
34124;BME280;13153;52.316;21.166;2023-12-07T12:20:54;100919.75;;;3.57;67.81
34124;BME280;13153;52.316;21.166;2023-12-07T12:23:21;100913.03;;;3.60;67.58
34124;BME280;13153;52.316;21.166;2023-12-07T12:25:47;100922.25;;;3.55;66.67
34124;BME280;13153;52.316;21.166;2023-12-07T12:28:17;100926.56;;;3.55;66.99
34124;BME280;13153;52.316;21.166;2023-12-07T12:30:44;100915.75;;;3.49;67.59
34124;BME280;13153;52.316;21.166;2023-12-07T12:33:12;100920.66;;;3.57;66.82
34124;BME280;13153;52.316;21.166;2023-12-07T12:35:38;100925.34;;;3.63;66.43
34124;BME280;13153;52.316;21.166;2023-12-07T12:38:09;100922.31;;;3.70;66.52
34124;BME280;13153;52.316;21.166;2023-12-07T12:40:36;100912.63;;;3.95;66.15
34124;BME280;13153;52.316;21.166;2023-12-07T12:43:02;100909.50;;;4.01;65.84
34124;BME280;13153;52.316;21.166;2023-12-07T12:45:28;100922.03;;;3.93;67.14
34124;BME280;13153;52.316;21.166;2023-12-07T12:47:54;100923.41;;;4.02;66.11
34124;BME280;13153;52.316;21.166;2023-12-07T12:50:39;100907.78;;;4.02;66.63
34124;BME280;13153;52.316;21.166;2023-12-07T12:53:08;100916.25;;;3.84;66.13
34124;BME280;13153;52.316;21.166;2023-12-07T12:55:39;100918.81;;;3.97;66.12
34124;BME280;13153;52.316;21.166;2023-12-07T12:58:09;100928.22;;;3.95;66.06